createdAt,value
2022-09-10T00:01:20.046Z,16.22
2022-09-10T00:03:50.130Z,16.22
2022-09-10T00:06:18.815Z,16.22
2022-09-10T00:08:46.619Z,16.19
2022-09-10T00:11:14.997Z,16.18
2022-09-10T00:13:42.803Z,16.15
2022-09-10T00:16:10.391Z,16.12
2022-09-10T00:18:39.420Z,16.09
2022-09-10T00:21:07.207Z,16.07
2022-09-10T00:23:34.948Z,16.05
2022-09-10T00:26:02.669Z,16.02
2022-09-10T00:28:30.475Z,16.00
2022-09-10T00:30:58.298Z,15.99
2022-09-10T00:33:26.306Z,15.96
2022-09-10T00:35:53.936Z,15.93
2022-09-10T00:38:21.657Z,15.91
2022-09-10T00:40:49.430Z,15.88
2022-09-10T00:43:18.941Z,15.86
2022-09-10T00:45:46.557Z,15.83
2022-09-10T00:48:14.496Z,15.81
2022-09-10T00:50:42.234Z,15.80
2022-09-10T00:53:10.686Z,15.79
2022-09-10T00:55:38.505Z,15.79
2022-09-10T00:58:06.267Z,15.77
2022-09-10T01:00:33.897Z,15.76
2022-09-10T01:03:01.904Z,15.77
2022-09-10T01:05:29.690Z,15.77
2022-09-10T01:07:58.311Z,15.79
2022-09-10T01:10:26.395Z,15.81
2022-09-10T01:12:54.660Z,15.81
2022-09-10T01:15:22.404Z,15.82
2022-09-10T01:17:50.097Z,15.84
2022-09-10T01:20:17.856Z,15.86
2022-09-10T01:22:45.589Z,15.89
2022-09-10T01:25:13.251Z,15.88
2022-09-10T01:27:41.416Z,15.88
2022-09-10T01:30:09.157Z,15.86
2022-09-10T01:32:37.031Z,15.84
2022-09-10T01:35:04.663Z,15.81
2022-09-10T01:37:32.228Z,15.78
2022-09-10T01:39:59.970Z,15.75
2022-09-10T01:42:28.530Z,15.73
2022-09-10T01:44:57.416Z,15.69
2022-09-10T01:47:25.049Z,15.67
2022-09-10T01:49:53.110Z,15.62
2022-09-10T01:52:22.322Z,15.60
2022-09-10T01:54:49.933Z,15.57
2022-09-10T01:57:17.566Z,15.56
2022-09-10T01:59:45.295Z,15.53
2022-09-10T02:02:13.456Z,15.55
2022-09-10T02:04:41.046Z,15.55
2022-09-10T02:07:08.789Z,15.58
2022-09-10T02:09:36.431Z,15.61
2022-09-10T02:12:04.348Z,15.64
2022-09-10T02:14:31.974Z,15.68
2022-09-10T02:16:59.853Z,15.72
2022-09-10T02:19:27.869Z,15.73
2022-09-10T02:21:56.330Z,15.77
2022-09-10T02:24:24.055Z,15.81
2022-09-10T02:26:51.698Z,15.83
2022-09-10T02:29:19.487Z,15.83
2022-09-10T02:31:48.179Z,15.83
2022-09-10T02:34:16.169Z,15.84
2022-09-10T02:36:43.899Z,15.83
2022-09-10T02:39:11.529Z,15.82
2022-09-10T02:41:41.297Z,15.81
2022-09-10T02:44:08.937Z,15.81
2022-09-10T02:46:36.651Z,15.79
2022-09-10T02:49:04.285Z,15.79
2022-09-10T02:51:32.241Z,15.79
2022-09-10T02:53:59.849Z,15.79
2022-09-10T02:56:27.421Z,15.79
2022-09-10T02:58:55.097Z,15.79
2022-09-10T03:01:22.701Z,15.80
2022-09-10T03:03:50.661Z,15.78
2022-09-10T03:06:18.484Z,15.74
2022-09-10T03:08:46.222Z,15.71
2022-09-10T03:11:16.565Z,15.68
2022-09-10T03:13:46.395Z,15.65
2022-09-10T03:16:14.511Z,15.65
2022-09-10T03:18:42.243Z,15.65
2022-09-10T03:21:09.968Z,15.64
2022-09-10T03:23:37.929Z,15.66
2022-09-10T03:26:06.300Z,15.66
2022-09-10T03:28:34.264Z,15.68
2022-09-10T03:31:02.253Z,15.68
2022-09-10T03:33:35.048Z,15.69
2022-09-10T03:36:02.843Z,15.68
2022-09-10T03:38:30.566Z,15.69
2022-09-10T03:40:58.322Z,15.71
2022-09-10T03:43:27.291Z,15.73
2022-09-10T03:45:55.496Z,15.74
2022-09-10T03:48:23.121Z,15.76
2022-09-10T03:50:51.363Z,15.77
2022-09-10T03:53:19.283Z,15.79
2022-09-10T03:55:46.888Z,15.81
2022-09-10T03:58:14.513Z,15.81
2022-09-10T04:00:43.059Z,15.81
2022-09-10T04:03:11.392Z,15.83
2022-09-10T04:05:39.016Z,15.84
2022-09-10T04:08:07.612Z,15.84
2022-09-10T04:10:35.458Z,15.86
2022-09-10T04:13:03.304Z,15.83
2022-09-10T04:15:31.005Z,15.80
2022-09-10T04:17:58.565Z,15.79
2022-09-10T04:20:26.194Z,15.81
2022-09-10T04:22:54.026Z,15.81
2022-09-10T04:25:21.662Z,15.82
2022-09-10T04:27:49.310Z,15.79
2022-09-10T04:30:16.990Z,15.79
2022-09-10T04:32:45.430Z,15.77
2022-09-10T04:35:15.489Z,15.77
2022-09-10T04:37:43.190Z,15.75
2022-09-10T04:40:10.979Z,15.75
2022-09-10T04:42:38.952Z,15.74
2022-09-10T04:45:06.704Z,15.74
2022-09-10T04:47:34.447Z,15.74
2022-09-10T04:50:02.179Z,15.75
2022-09-10T04:52:30.650Z,15.74
2022-09-10T04:54:58.332Z,15.74
2022-09-10T04:57:26.080Z,15.75
2022-09-10T04:59:54.162Z,15.75
2022-09-10T05:02:22.058Z,15.69
2022-09-10T05:04:50.901Z,15.67
2022-09-10T05:07:18.496Z,15.67
2022-09-10T05:09:46.110Z,15.65
2022-09-10T05:12:15.491Z,15.67
2022-09-10T05:14:43.251Z,15.69
2022-09-10T05:17:11.498Z,15.70
2022-09-10T05:19:39.164Z,15.72
2022-09-10T05:22:07.069Z,15.73
2022-09-10T05:24:35.305Z,15.72
2022-09-10T05:27:02.951Z,15.73
2022-09-10T05:29:30.516Z,15.74
2022-09-10T05:31:58.551Z,15.74
2022-09-10T05:34:26.249Z,15.75
2022-09-10T05:36:53.897Z,15.77
2022-09-10T05:39:21.528Z,15.82
2022-09-10T05:41:49.471Z,15.86
2022-09-10T05:44:17.703Z,15.91
2022-09-10T05:46:45.343Z,15.93
2022-09-10T05:49:13.315Z,15.97
2022-09-10T05:51:41.603Z,16.03
2022-09-10T05:54:09.317Z,16.07
2022-09-10T05:56:36.951Z,16.12
2022-09-10T05:59:05.808Z,16.15
2022-09-10T06:01:33.359Z,16.17
2022-09-10T06:04:01.918Z,16.21
2022-09-10T06:06:29.477Z,16.24
2022-09-10T06:08:57.124Z,16.28
2022-09-10T06:11:24.836Z,16.30
2022-09-10T06:13:53.462Z,16.33
2022-09-10T06:16:21.183Z,16.37
2022-09-10T06:18:48.871Z,16.38
2022-09-10T06:21:16.549Z,16.42
2022-09-10T06:23:45.513Z,16.43
2022-09-10T06:26:13.077Z,16.41
2022-09-10T06:28:40.823Z,16.37
2022-09-10T06:31:08.510Z,16.29
2022-09-10T06:33:36.453Z,16.15
2022-09-10T06:36:04.132Z,16.02
2022-09-10T06:38:33.760Z,15.90
2022-09-10T06:41:01.422Z,15.82
2022-09-10T06:43:29.336Z,15.74
2022-09-10T06:45:56.900Z,15.68
2022-09-10T06:48:47.550Z,15.68
2022-09-10T06:51:15.749Z,15.66
2022-09-10T06:53:43.679Z,15.65
2022-09-10T06:56:11.411Z,15.67
2022-09-10T06:58:39.292Z,15.68
2022-09-10T07:01:13.929Z,15.71
2022-09-10T07:03:41.579Z,15.71
2022-09-10T07:06:09.892Z,15.74
2022-09-10T07:08:37.552Z,15.77
2022-09-10T07:11:05.526Z,15.85
2022-09-10T07:13:33.173Z,15.94
2022-09-10T07:16:01.008Z,16.06
2022-09-10T07:18:28.905Z,16.17
2022-09-10T07:20:56.724Z,16.29
2022-09-10T07:23:24.354Z,16.42
2022-09-10T07:25:52.302Z,16.55
2022-09-10T07:28:19.875Z,16.68
2022-09-10T07:30:47.812Z,16.82
2022-09-10T07:33:15.733Z,16.93
2022-09-10T07:35:43.448Z,17.07
2022-09-10T07:38:11.515Z,17.13
2022-09-10T07:40:39.272Z,17.20
2022-09-10T07:43:08.377Z,17.26
2022-09-10T07:45:36.053Z,17.29
2022-09-10T07:48:03.822Z,17.27
2022-09-10T07:50:31.563Z,17.21
2022-09-10T07:52:59.420Z,17.15
2022-09-10T07:55:26.985Z,17.13
2022-09-10T07:57:59.881Z,17.09
2022-09-10T08:00:27.752Z,17.07
2022-09-10T08:02:55.715Z,17.00
2022-09-10T08:05:23.580Z,16.97
2022-09-10T08:07:51.243Z,16.96
2022-09-10T08:10:19.861Z,16.97
2022-09-10T08:12:47.848Z,17.00
2022-09-10T08:15:16.474Z,17.04
2022-09-10T08:17:44.120Z,17.09
2022-09-10T08:20:11.779Z,17.13
2022-09-10T08:22:39.409Z,17.16
2022-09-10T08:25:06.965Z,17.25
2022-09-10T08:27:35.368Z,17.37
2022-09-10T08:30:03.084Z,17.54
2022-09-10T08:32:31.360Z,17.78
2022-09-10T08:34:59.103Z,17.98
2022-09-10T08:37:26.845Z,18.17
2022-09-10T08:39:54.589Z,18.32
2022-09-10T08:42:22.666Z,18.42
2022-09-10T08:44:50.324Z,18.52
2022-09-10T08:47:20.586Z,18.56
2022-09-10T08:49:48.279Z,18.57
2022-09-10T08:52:16.767Z,18.56
2022-09-10T08:54:44.575Z,18.54
2022-09-10T08:57:12.401Z,18.47
2022-09-10T08:59:40.752Z,18.46
2022-09-10T09:02:08.708Z,18.41
2022-09-10T09:04:36.557Z,18.39
2022-09-10T09:07:04.757Z,18.36
2022-09-10T09:09:32.343Z,18.35
2022-09-10T09:12:00.203Z,18.35
2022-09-10T09:14:28.186Z,18.38
2022-09-10T09:16:56.024Z,18.47
2022-09-10T09:19:23.888Z,18.65
2022-09-10T09:21:52.283Z,18.76
2022-09-10T09:24:19.960Z,18.84
2022-09-10T09:26:48.112Z,18.87
2022-09-10T09:29:18.220Z,18.91
2022-09-10T09:31:46.584Z,18.97
2022-09-10T09:34:14.240Z,19.08
2022-09-10T09:36:42.607Z,19.21
2022-09-10T09:39:10.220Z,19.29
2022-09-10T09:41:38.676Z,19.39
2022-09-10T09:44:06.875Z,19.42
2022-09-10T09:46:34.572Z,19.52
2022-09-10T09:49:02.233Z,19.68
2022-09-10T09:51:30.813Z,19.98
2022-09-10T09:54:25.708Z,20.18
2022-09-10T09:56:46.180Z,20.32
2022-09-10T09:59:15.200Z,20.33
2022-09-10T10:01:43.029Z,20.23
2022-09-10T10:04:12.009Z,20.05
2022-09-10T10:06:39.671Z,19.93
2022-09-10T10:09:07.392Z,19.87
2022-09-10T10:11:35.057Z,19.81
2022-09-10T10:14:03.047Z,19.70
2022-09-10T10:16:30.619Z,19.57
2022-09-10T10:18:58.268Z,19.49
2022-09-10T10:21:26.020Z,19.40
2022-09-10T10:23:53.973Z,19.30
2022-09-10T10:26:21.676Z,19.25
2022-09-10T10:28:49.396Z,19.19
2022-09-10T10:31:17.042Z,19.08
2022-09-10T10:33:45.481Z,19.02
2022-09-10T10:36:13.217Z,18.99
2022-09-10T10:38:41.371Z,18.95
2022-09-10T10:41:09.821Z,18.90
2022-09-10T10:43:37.781Z,18.88
2022-09-10T10:46:11.224Z,18.85
2022-09-10T10:48:39.565Z,18.81
2022-09-10T10:51:07.463Z,18.78
2022-09-10T10:53:36.300Z,18.77
2022-09-10T10:56:04.154Z,18.72
2022-09-10T10:58:32.003Z,18.70
2022-09-10T11:00:59.839Z,18.65
2022-09-10T11:03:28.277Z,18.61
2022-09-10T11:05:56.214Z,18.58
2022-09-10T11:08:23.858Z,18.53
2022-09-10T11:10:51.768Z,18.47
2022-09-10T11:13:19.490Z,18.33
2022-09-10T11:15:47.125Z,18.03
2022-09-10T11:18:15.196Z,17.65
2022-09-10T11:20:43.391Z,17.34
2022-09-10T11:23:12.366Z,17.11
2022-09-10T11:25:39.955Z,16.94
2022-09-10T11:28:07.645Z,16.82
2022-09-10T11:30:35.329Z,16.72
2022-09-10T11:33:03.298Z,16.65
2022-09-10T11:35:31.619Z,16.59
2022-09-10T11:37:59.309Z,16.51
2022-09-10T11:40:26.981Z,16.46
2022-09-10T11:42:57.225Z,16.42
2022-09-10T11:45:25.302Z,16.39
2022-09-10T11:47:56.658Z,16.38
2022-09-10T11:50:24.258Z,16.34
2022-09-10T11:52:53.525Z,16.31
2022-09-10T11:55:22.087Z,16.27
2022-09-10T11:57:49.841Z,16.22
2022-09-10T12:00:17.557Z,16.20
2022-09-10T12:02:45.568Z,16.17
2022-09-10T12:05:13.211Z,16.13
2022-09-10T12:07:40.838Z,16.12
2022-09-10T12:10:12.266Z,16.11
2022-09-10T12:12:42.230Z,16.12
2022-09-10T12:15:09.914Z,16.10
2022-09-10T12:17:37.689Z,16.05
2022-09-10T12:20:05.705Z,15.96
2022-09-10T12:22:37.063Z,15.94
2022-09-10T12:25:04.775Z,15.97
2022-09-10T12:27:32.397Z,16.05
2022-09-10T12:29:59.983Z,16.14
2022-09-10T12:32:28.750Z,16.20
2022-09-10T12:34:56.381Z,16.31
2022-09-10T12:37:24.129Z,16.42
2022-09-10T12:39:52.118Z,16.53
2022-09-10T12:42:19.848Z,16.72
2022-09-10T12:44:47.644Z,16.91
2022-09-10T12:47:15.408Z,17.07
2022-09-10T12:49:43.132Z,17.14
2022-09-10T12:52:10.851Z,17.15
2022-09-10T12:54:38.602Z,17.20
2022-09-10T12:57:08.392Z,17.28
2022-09-10T12:59:36.051Z,17.34
2022-09-10T13:02:04.153Z,17.39
2022-09-10T13:04:31.860Z,17.43
2022-09-10T13:06:59.526Z,17.42
2022-09-10T13:09:27.128Z,17.42
2022-09-10T13:11:55.688Z,17.43
2022-09-10T13:14:23.482Z,17.43
2022-09-10T13:16:51.132Z,17.44
2022-09-10T13:19:19.604Z,17.48
2022-09-10T13:21:48.271Z,17.50
2022-09-10T13:24:16.438Z,17.53
2022-09-10T13:26:44.062Z,17.61
2022-09-10T13:29:12.492Z,17.67
2022-09-10T13:31:40.266Z,17.74
2022-09-10T13:34:08.335Z,17.80
2022-09-10T13:36:35.970Z,17.85
2022-09-10T13:39:03.641Z,17.85
2022-09-10T13:41:31.942Z,17.80
2022-09-10T13:44:01.319Z,17.75
2022-09-10T13:46:30.568Z,17.69
2022-09-10T13:48:58.585Z,17.58
2022-09-10T13:51:26.269Z,17.49
2022-09-10T13:53:57.008Z,17.40
2022-09-10T13:56:25.027Z,17.32
2022-09-10T13:58:52.663Z,17.27
2022-09-10T14:01:20.407Z,17.20
2022-09-10T14:03:48.379Z,17.16
2022-09-10T14:06:16.081Z,17.13
2022-09-10T14:08:44.090Z,17.09
2022-09-10T14:11:11.831Z,17.08
2022-09-10T14:13:40.452Z,17.07
2022-09-10T14:16:09.495Z,17.04
2022-09-10T14:18:37.522Z,17.02
2022-09-10T14:21:05.128Z,17.04
2022-09-10T14:23:32.890Z,17.01
2022-09-10T14:26:00.537Z,16.99
2022-09-10T14:28:28.252Z,16.99
2022-09-10T14:30:55.972Z,16.99
2022-09-10T14:33:25.989Z,16.99
2022-09-10T14:35:53.684Z,16.99
2022-09-10T14:38:21.385Z,17.00
2022-09-10T14:40:49.820Z,17.02
2022-09-10T14:43:18.895Z,17.02
2022-09-10T14:45:48.012Z,17.03
2022-09-10T14:48:15.679Z,17.02
2022-09-10T14:50:43.987Z,17.01
2022-09-10T14:53:12.663Z,17.00
2022-09-10T14:55:40.313Z,17.00
2022-09-10T14:58:08.078Z,17.01
2022-09-10T15:00:35.843Z,17.02
2022-09-10T15:03:04.522Z,17.03
2022-09-10T15:05:32.240Z,17.06
2022-09-10T15:07:59.960Z,17.09
2022-09-10T15:10:28.760Z,17.11
2022-09-10T15:12:56.741Z,17.13
2022-09-10T15:15:25.118Z,17.17
2022-09-10T15:17:53.803Z,17.17
2022-09-10T15:20:25.892Z,17.19
2022-09-10T15:22:55.444Z,17.20
2022-09-10T15:25:23.088Z,17.23
2022-09-10T15:27:50.915Z,17.26
2022-09-10T15:30:18.670Z,17.27
2022-09-10T15:32:46.934Z,17.27
2022-09-10T15:35:14.561Z,17.26
2022-09-10T15:37:42.291Z,17.25
2022-09-10T15:40:10.337Z,17.23
2022-09-10T15:42:39.070Z,17.22
2022-09-10T15:45:07.282Z,17.23
2022-09-10T15:47:36.401Z,17.25
2022-09-10T15:50:05.028Z,17.26
2022-09-10T15:52:33.056Z,17.28
2022-09-10T15:55:00.790Z,17.27
2022-09-10T15:57:28.476Z,17.29
2022-09-10T15:59:56.218Z,17.32
2022-09-10T16:02:24.243Z,17.35
2022-09-10T16:04:51.921Z,17.37
2022-09-10T16:07:20.341Z,17.39
2022-09-10T16:09:48.335Z,17.44
2022-09-10T16:12:18.448Z,17.57
2022-09-10T16:14:46.866Z,17.73
2022-09-10T16:17:17.498Z,17.85
2022-09-10T16:19:45.243Z,17.98
2022-09-10T16:22:16.396Z,18.04
2022-09-10T16:24:46.422Z,18.07
2022-09-10T16:27:14.091Z,18.07
2022-09-10T16:29:43.686Z,18.04
2022-09-10T16:32:11.847Z,18.02
2022-09-10T16:34:39.866Z,18.01
2022-09-10T16:37:07.892Z,17.99
2022-09-10T16:39:35.559Z,17.94
2022-09-10T16:42:04.260Z,17.88
2022-09-10T16:44:32.547Z,17.85
2022-09-10T16:47:00.234Z,17.84
2022-09-10T16:49:27.917Z,17.87
2022-09-10T16:51:55.753Z,17.89
2022-09-10T16:54:23.531Z,17.89
2022-09-10T16:56:51.565Z,17.88
2022-09-10T16:59:19.711Z,17.88
2022-09-10T17:01:48.574Z,17.87
2022-09-10T17:04:20.663Z,17.88
2022-09-10T17:06:49.196Z,17.89
2022-09-10T17:09:17.745Z,17.89
2022-09-10T17:11:45.440Z,17.87
2022-09-10T17:14:13.076Z,17.84
2022-09-10T17:16:40.670Z,17.81
2022-09-10T17:19:08.877Z,17.78
2022-09-10T17:21:36.609Z,17.75
2022-09-10T17:24:04.252Z,17.73
2022-09-10T17:26:31.867Z,17.68
2022-09-10T17:28:59.465Z,17.63
2022-09-10T17:31:27.605Z,17.58
2022-09-10T17:34:01.163Z,17.54
2022-09-10T17:36:28.892Z,17.51
2022-09-10T17:38:56.612Z,17.48
2022-09-10T17:41:24.325Z,17.42
2022-09-10T17:43:52.018Z,17.38
2022-09-10T17:46:22.490Z,17.36
2022-09-10T17:48:50.252Z,17.33
2022-09-10T17:51:17.993Z,17.33
2022-09-10T17:53:45.693Z,17.31
2022-09-10T17:56:13.275Z,17.31
2022-09-10T17:58:41.097Z,17.30
2022-09-10T18:01:09.259Z,17.28
2022-09-10T18:03:38.253Z,17.26
2022-09-10T18:06:05.950Z,17.21
2022-09-10T18:08:33.895Z,17.16
2022-09-10T18:11:01.910Z,17.11
2022-09-10T18:13:30.910Z,17.10
2022-09-10T18:15:58.693Z,17.10
2022-09-10T18:18:26.550Z,17.11
2022-09-10T18:20:54.227Z,17.12
2022-09-10T18:23:27.148Z,17.13
2022-09-10T18:25:55.618Z,17.14
2022-09-10T18:28:23.328Z,17.15
2022-09-10T18:30:50.959Z,17.14
2022-09-10T18:33:24.669Z,17.13
2022-09-10T18:35:52.286Z,17.11
2022-09-10T18:38:19.911Z,17.12
2022-09-10T18:40:47.534Z,17.11
2022-09-10T18:43:15.543Z,17.11
2022-09-10T18:45:43.131Z,17.12
2022-09-10T18:48:10.944Z,17.12
2022-09-10T18:50:38.608Z,17.11
2022-09-10T18:53:08.635Z,17.08
2022-09-10T18:55:37.304Z,17.06
2022-09-10T18:58:04.999Z,17.04
2022-09-10T19:00:33.572Z,17.03
2022-09-10T19:03:20.120Z,17.03
2022-09-10T19:05:47.802Z,17.00
2022-09-10T19:08:17.604Z,16.99
2022-09-10T19:10:45.291Z,17.00
2022-09-10T19:13:13.146Z,17.02
2022-09-10T19:15:40.870Z,17.05
2022-09-10T19:18:08.640Z,17.07
2022-09-10T19:20:36.337Z,17.11
2022-09-10T19:23:04.769Z,17.14
2022-09-10T19:25:32.772Z,17.16
2022-09-10T19:28:00.487Z,17.18
2022-09-10T19:30:30.590Z,17.19
2022-09-10T19:33:00.610Z,17.20
2022-09-10T19:35:29.750Z,17.20
2022-09-10T19:37:58.782Z,17.23
2022-09-10T19:40:26.548Z,17.23
2022-09-10T19:42:54.639Z,17.24
2022-09-10T19:45:22.301Z,17.24
2022-09-10T19:47:50.017Z,17.25
2022-09-10T19:50:22.710Z,17.26
2022-09-10T19:52:53.868Z,17.25
2022-09-10T19:55:21.619Z,17.24
2022-09-10T19:57:49.445Z,17.23
2022-09-10T20:00:36.067Z,17.23
2022-09-10T20:03:04.949Z,17.25
2022-09-10T20:05:34.164Z,17.25
2022-09-10T20:08:01.914Z,17.25
2022-09-10T20:10:29.828Z,17.23
2022-09-10T20:12:57.714Z,17.21
2022-09-10T20:15:25.469Z,17.19
2022-09-10T20:17:53.141Z,17.18
2022-09-10T20:20:22.094Z,17.17
2022-09-10T20:22:49.860Z,17.16
2022-09-10T20:25:17.939Z,17.15
2022-09-10T20:27:45.629Z,17.13
2022-09-10T20:30:13.256Z,17.11
2022-09-10T20:32:41.466Z,17.09
2022-09-10T20:35:09.115Z,17.08
2022-09-10T20:37:37.022Z,17.06
2022-09-10T20:40:04.915Z,17.06
2022-09-10T20:42:33.975Z,17.05
2022-09-10T20:45:02.724Z,17.07
2022-09-10T20:47:31.650Z,17.05
2022-09-10T20:49:59.413Z,17.04
2022-09-10T20:52:29.461Z,17.03
2022-09-10T20:54:57.093Z,17.02
2022-09-10T20:57:24.883Z,17.01
2022-09-10T20:59:52.513Z,17.01
2022-09-10T21:02:26.486Z,16.98
2022-09-10T21:04:54.238Z,16.96
2022-09-10T21:07:22.001Z,16.94
2022-09-10T21:09:49.674Z,16.92
2022-09-10T21:12:17.825Z,16.90
2022-09-10T21:14:45.488Z,16.88
2022-09-10T21:17:13.180Z,16.87
2022-09-10T21:19:40.791Z,16.86
2022-09-10T21:22:09.403Z,16.84
2022-09-10T21:24:39.589Z,16.85
2022-09-10T21:27:07.278Z,16.84
2022-09-10T21:29:35.424Z,16.83
2022-09-10T21:32:03.507Z,16.81
2022-09-10T21:34:32.655Z,16.81
2022-09-10T21:37:00.300Z,16.80
2022-09-10T21:39:27.932Z,16.77
2022-09-10T21:41:58.706Z,16.75
2022-09-10T21:44:26.288Z,16.72
2022-09-10T21:46:54.038Z,16.69
2022-09-10T21:49:21.629Z,16.68
2022-09-10T21:51:49.692Z,16.68
2022-09-10T21:54:18.734Z,16.68
2022-09-10T21:56:46.357Z,16.70
2022-09-10T21:59:14.638Z,16.71
2022-09-10T22:01:42.523Z,16.72
2022-09-10T22:04:20.000Z,16.74
2022-09-10T22:06:50.046Z,16.75
2022-09-10T22:09:17.743Z,16.76
2022-09-10T22:11:46.004Z,16.77
2022-09-10T22:14:13.671Z,16.76
2022-09-10T22:16:41.377Z,16.76
2022-09-10T22:19:09.149Z,16.75
2022-09-10T22:21:38.489Z,16.76
2022-09-10T22:24:06.554Z,16.76
2022-09-10T22:26:36.052Z,16.76
2022-09-10T22:29:03.860Z,16.76
2022-09-10T22:31:32.365Z,16.76
2022-09-10T22:34:00.400Z,16.77
2022-09-10T22:36:29.027Z,16.78
2022-09-10T22:38:57.179Z,16.79
2022-09-10T22:41:24.789Z,16.77
2022-09-10T22:43:53.703Z,16.76
2022-09-10T22:46:21.522Z,16.73
2022-09-10T22:48:49.127Z,16.70
2022-09-10T22:51:16.812Z,16.68
2022-09-10T22:53:44.434Z,16.68
2022-09-10T22:56:11.995Z,16.69
2022-09-10T22:58:39.738Z,16.69
2022-09-10T23:01:07.742Z,16.67
2022-09-10T23:03:36.867Z,16.67
2022-09-10T23:06:06.290Z,16.66
2022-09-10T23:08:34.299Z,16.67
2022-09-10T23:11:02.219Z,16.66
2022-09-10T23:13:30.126Z,16.64
2022-09-10T23:15:57.815Z,16.61
2022-09-10T23:18:25.530Z,16.57
2022-09-10T23:20:53.164Z,16.52
2022-09-10T23:23:21.148Z,16.47
2022-09-10T23:25:48.823Z,16.41
2022-09-10T23:28:16.360Z,16.36
2022-09-10T23:30:45.762Z,16.31
2022-09-10T23:33:13.907Z,16.23
2022-09-10T23:35:41.683Z,16.16
2022-09-10T23:38:09.834Z,16.10
2022-09-10T23:40:38.171Z,16.02
2022-09-10T23:43:06.117Z,15.97
2022-09-10T23:45:33.861Z,15.92
2022-09-10T23:48:01.464Z,15.89
2022-09-10T23:50:29.291Z,15.86
2022-09-10T23:52:58.243Z,15.81
2022-09-10T23:55:25.880Z,15.77
2022-09-10T23:57:53.831Z,15.74
